<?xml version="1.0" encoding="UTF-8" standalone="no" ?>
<gpx xmlns="http://www.topografix.com/GPX/1/1" xmlns:xsi="http://www.w3.org/2001/XMLSchema-instance" xsi:schemaLocation="http://www.topografix.com/GPX/1/1 http://www.topografix.com/GPX/1/1/gpx.xsd" version="1.1" creator="VisuGPX - https://www.visugpx.com">
  <metadata>
    <name>Tour de France 2019</name>
    <desc><![CDATA[4272km en 2 mois en tandem avec notre petit chien dans le panier avant]]></desc>
  </metadata>
  <trk>
    <name><![CDATA[Tracé 20190925-095458]]></name>
    <trkseg>
      <trkpt lat="47.95733" lon="5.74034">
        <ele>276.345</ele>
        <time>2019-09-25T09:58:23Z</time>
      </trkpt>
      <trkpt lat="47.95731" lon="5.74187">
        <ele>284.608</ele>
        <time>2019-09-25T09:58:53Z</time>
      </trkpt>
      <trkpt lat="47.95718" lon="5.7439">
        <ele>281.953</ele>
        <time>2019-09-25T09:59:23Z</time>
      </trkpt>
      <trkpt lat="47.9566" lon="5.74535">
        <ele>280.411</ele>
        <time>2019-09-25T09:59:53Z</time>
      </trkpt>
      <trkpt lat="47.95576" lon="5.74537">
        <ele>280.007</ele>
        <time>2019-09-25T10:00:23Z</time>
      </trkpt>
      <trkpt lat="47.9552" lon="5.74538">
        <ele>282.121</ele>
        <time>2019-09-25T10:00:56Z</time>
      </trkpt>
      <trkpt lat="47.95515" lon="5.74707">
        <ele>286.174</ele>
        <time>2019-09-25T10:01:32Z</time>
      </trkpt>
      <trkpt lat="47.95504" lon="5.75043">
        <ele>268.772</ele>
        <time>2019-09-25T10:02:02Z</time>
      </trkpt>
      <trkpt lat="47.95379" lon="5.75234">
        <ele>262.184</ele>
        <time>2019-09-25T10:02:32Z</time>
      </trkpt>
      <trkpt lat="47.95226" lon="5.75223">
        <ele>265.612</ele>
        <time>2019-09-25T10:03:02Z</time>
      </trkpt>
      <trkpt lat="47.95211" lon="5.754">
        <ele>268.811</ele>
        <time>2019-09-25T10:03:32Z</time>
      </trkpt>
      <trkpt lat="47.95093" lon="5.75507">
        <ele>266.395</ele>
        <time>2019-09-25T10:04:02Z</time>
      </trkpt>
      <trkpt lat="47.9496" lon="5.75623">
        <ele>264.837</ele>
        <time>2019-09-25T10:04:32Z</time>
      </trkpt>
      <trkpt lat="47.94787" lon="5.75653">
        <ele>263.313</ele>
        <time>2019-09-25T10:05:02Z</time>
      </trkpt>
      <trkpt lat="47.94629" lon="5.75651">
        <ele>261.369</ele>
        <time>2019-09-25T10:05:32Z</time>
      </trkpt>
      <trkpt lat="47.94472" lon="5.75733">
        <ele>258.098</ele>
        <time>2019-09-25T10:06:02Z</time>
      </trkpt>
      <trkpt lat="47.94345" lon="5.75894">
        <ele>263.002</ele>
        <time>2019-09-25T10:06:32Z</time>
      </trkpt>
      <trkpt lat="47.94233" lon="5.76075">
        <ele>261.699</ele>
        <time>2019-09-25T10:07:02Z</time>
      </trkpt>
      <trkpt lat="47.94088" lon="5.76234">
        <ele>258.98</ele>
        <time>2019-09-25T10:07:35Z</time>
      </trkpt>
      <trkpt lat="47.93943" lon="5.76345">
        <ele>257.348</ele>
        <time>2019-09-25T10:08:05Z</time>
      </trkpt>
      <trkpt lat="47.93812" lon="5.76484">
        <ele>262.617</ele>
        <time>2019-09-25T10:08:35Z</time>
      </trkpt>
      <trkpt lat="47.93675" lon="5.76618">
        <ele>263.346</ele>
        <time>2019-09-25T10:09:05Z</time>
      </trkpt>
      <trkpt lat="47.93537" lon="5.76647">
        <ele>260.872</ele>
        <time>2019-09-25T10:09:35Z</time>
      </trkpt>
      <trkpt lat="47.93421" lon="5.76615">
        <ele>259.256</ele>
        <time>2019-09-25T10:10:05Z</time>
      </trkpt>
      <trkpt lat="47.93329" lon="5.76498">
        <ele>270.699</ele>
        <time>2019-09-25T10:10:35Z</time>
      </trkpt>
      <trkpt lat="47.93241" lon="5.7637">
        <ele>271.189</ele>
        <time>2019-09-25T10:11:05Z</time>
      </trkpt>
      <trkpt lat="47.93147" lon="5.76268">
        <ele>273.038</ele>
        <time>2019-09-25T10:11:35Z</time>
      </trkpt>
      <trkpt lat="47.93038" lon="5.76203">
        <ele>268.052</ele>
        <time>2019-09-25T10:12:05Z</time>
      </trkpt>
      <trkpt lat="47.9293" lon="5.76163">
        <ele>270.769</ele>
        <time>2019-09-25T10:12:35Z</time>
      </trkpt>
      <trkpt lat="47.92819" lon="5.76129">
        <ele>268.613</ele>
        <time>2019-09-25T10:13:05Z</time>
      </trkpt>
      <trkpt lat="47.92708" lon="5.76093">
        <ele>270.4</ele>
        <time>2019-09-25T10:13:38Z</time>
      </trkpt>
      <trkpt lat="47.92637" lon="5.76068">
        <ele>269.842</ele>
        <time>2019-09-25T10:20:38Z</time>
      </trkpt>
      <trkpt lat="47.9256" lon="5.76049">
        <ele>269.704</ele>
        <time>2019-09-25T10:21:11Z</time>
      </trkpt>
      <trkpt lat="47.92462" lon="5.76013">
        <ele>272.377</ele>
        <time>2019-09-25T10:21:41Z</time>
      </trkpt>
      <trkpt lat="47.92365" lon="5.75947">
        <ele>274.119</ele>
        <time>2019-09-25T10:22:11Z</time>
      </trkpt>
      <trkpt lat="47.92288" lon="5.75861">
        <ele>281.906</ele>
        <time>2019-09-25T10:22:41Z</time>
      </trkpt>
      <trkpt lat="47.92212" lon="5.75752">
        <ele>298.611</ele>
        <time>2019-09-25T10:23:11Z</time>
      </trkpt>
      <trkpt lat="47.92132" lon="5.75623">
        <ele>303.807</ele>
        <time>2019-09-25T10:23:41Z</time>
      </trkpt>
      <trkpt lat="47.92088" lon="5.75502">
        <ele>293.696</ele>
        <time>2019-09-25T10:24:11Z</time>
      </trkpt>
      <trkpt lat="47.92071" lon="5.75384">
        <ele>287.525</ele>
        <time>2019-09-25T10:24:41Z</time>
      </trkpt>
      <trkpt lat="47.92034" lon="5.75272">
        <ele>286.18</ele>
        <time>2019-09-25T10:25:11Z</time>
      </trkpt>
      <trkpt lat="47.91983" lon="5.75177">
        <ele>287.353</ele>
        <time>2019-09-25T10:25:41Z</time>
      </trkpt>
      <trkpt lat="47.91915" lon="5.75094">
        <ele>291.784</ele>
        <time>2019-09-25T10:26:14Z</time>
      </trkpt>
      <trkpt lat="47.91844" lon="5.75044">
        <ele>295.276</ele>
        <time>2019-09-25T10:26:44Z</time>
      </trkpt>
      <trkpt lat="47.9177" lon="5.75004">
        <ele>296.066</ele>
        <time>2019-09-25T10:27:14Z</time>
      </trkpt>
      <trkpt lat="47.91696" lon="5.74975">
        <ele>300.446</ele>
        <time>2019-09-25T10:27:44Z</time>
      </trkpt>
      <trkpt lat="47.9163" lon="5.74942">
        <ele>304.592</ele>
        <time>2019-09-25T08:28:14.001Z</time>
      </trkpt>
      <trkpt lat="47.91566" lon="5.74909">
        <ele>310.344</ele>
        <time>2019-09-25T08:28:44.001Z</time>
      </trkpt>
      <trkpt lat="47.91497" lon="5.74876">
        <ele>311.975</ele>
        <time>2019-09-25T08:29:14.001Z</time>
      </trkpt>
      <trkpt lat="47.91425" lon="5.74838">
        <ele>309.358</ele>
        <time>2019-09-25T08:29:44.001Z</time>
      </trkpt>
      <trkpt lat="47.91364" lon="5.74889">
        <ele>310.415</ele>
        <time>2019-09-25T08:30:14.001Z</time>
      </trkpt>
      <trkpt lat="47.91284" lon="5.74971">
        <ele>312.873</ele>
        <time>2019-09-25T08:30:44.001Z</time>
      </trkpt>
      <trkpt lat="47.9121" lon="5.74978">
        <ele>314.588</ele>
        <time>2019-09-25T08:31:14.001Z</time>
      </trkpt>
      <trkpt lat="47.91144" lon="5.74984">
        <ele>316.267</ele>
        <time>2019-09-25T08:31:44.001Z</time>
      </trkpt>
      <trkpt lat="47.90976" lon="5.7505">
        <ele>311.612</ele>
        <time>2019-09-25T08:32:17.001Z</time>
      </trkpt>
      <trkpt lat="47.9078" lon="5.75246">
        <ele>302.586</ele>
        <time>2019-09-25T08:32:47.001Z</time>
      </trkpt>
      <trkpt lat="47.90675" lon="5.75533">
        <ele>298.516</ele>
        <time>2019-09-25T08:33:17.001Z</time>
      </trkpt>
      <trkpt lat="47.90551" lon="5.75868">
        <ele>293.16</ele>
        <time>2019-09-25T08:33:47.001Z</time>
      </trkpt>
      <trkpt lat="47.90483" lon="5.76199">
        <ele>281.937</ele>
        <time>2019-09-25T08:34:17.001Z</time>
      </trkpt>
      <trkpt lat="47.90535" lon="5.76499">
        <ele>280.988</ele>
        <time>2019-09-25T08:34:47.001Z</time>
      </trkpt>
      <trkpt lat="47.90462" lon="5.76713">
        <ele>282.365</ele>
        <time>2019-09-25T08:35:17.001Z</time>
      </trkpt>
      <trkpt lat="47.90344" lon="5.76908">
        <ele>278.267</ele>
        <time>2019-09-25T08:35:47.001Z</time>
      </trkpt>
      <trkpt lat="47.90212" lon="5.77129">
        <ele>273.623</ele>
        <time>2019-09-25T08:36:17.001Z</time>
      </trkpt>
      <trkpt lat="47.90059" lon="5.77263">
        <ele>274.512</ele>
        <time>2019-09-25T08:36:47.001Z</time>
      </trkpt>
      <trkpt lat="47.89887" lon="5.7737">
        <ele>275.42</ele>
        <time>2019-09-25T08:37:17.001Z</time>
      </trkpt>
      <trkpt lat="47.8972" lon="5.77479">
        <ele>276.913</ele>
        <time>2019-09-25T08:37:47.001Z</time>
      </trkpt>
      <trkpt lat="47.89559" lon="5.77685">
        <ele>275.148</ele>
        <time>2019-09-25T08:38:20.001Z</time>
      </trkpt>
      <trkpt lat="47.89417" lon="5.7781">
        <ele>270.325</ele>
        <time>2019-09-25T08:38:50.001Z</time>
      </trkpt>
      <trkpt lat="47.8928" lon="5.77929">
        <ele>268.634</ele>
        <time>2019-09-25T08:39:20.001Z</time>
      </trkpt>
      <trkpt lat="47.89109" lon="5.78037">
        <ele>262.018</ele>
        <time>2019-09-25T08:39:50.001Z</time>
      </trkpt>
      <trkpt lat="47.88947" lon="5.78129">
        <ele>265.061</ele>
        <time>2019-09-25T08:40:20.001Z</time>
      </trkpt>
      <trkpt lat="47.88782" lon="5.78223">
        <ele>259.571</ele>
        <time>2019-09-25T08:40:50.001Z</time>
      </trkpt>
      <trkpt lat="47.88606" lon="5.78234">
        <ele>257.776</ele>
        <time>2019-09-25T08:41:20.001Z</time>
      </trkpt>
      <trkpt lat="47.88436" lon="5.78275">
        <ele>254.342</ele>
        <time>2019-09-25T08:41:50.001Z</time>
      </trkpt>
      <trkpt lat="47.88233" lon="5.78333">
        <ele>255.136</ele>
        <time>2019-09-25T08:42:20.001Z</time>
      </trkpt>
      <trkpt lat="47.88124" lon="5.78454">
        <ele>253.339</ele>
        <time>2019-09-25T08:42:50.001Z</time>
      </trkpt>
      <trkpt lat="47.88049" lon="5.78543">
        <ele>252.791</ele>
        <time>2019-09-25T08:43:20.001Z</time>
      </trkpt>
      <trkpt lat="47.87975" lon="5.78656">
        <ele>251.261</ele>
        <time>2019-09-25T08:43:50.001Z</time>
      </trkpt>
      <trkpt lat="47.8791" lon="5.78761">
        <ele>249.835</ele>
        <time>2019-09-25T08:44:23.001Z</time>
      </trkpt>
      <trkpt lat="47.87859" lon="5.78831">
        <ele>259.414</ele>
        <time>2019-09-25T08:44:53.001Z</time>
      </trkpt>
      <trkpt lat="47.87771" lon="5.78966">
        <ele>262.637</ele>
        <time>2019-09-25T08:45:23.001Z</time>
      </trkpt>
      <trkpt lat="47.87646" lon="5.79062">
        <ele>257.136</ele>
        <time>2019-09-25T08:45:53.001Z</time>
      </trkpt>
      <trkpt lat="47.87509" lon="5.79245">
        <ele>253.787</ele>
        <time>2019-09-25T08:46:23.001Z</time>
      </trkpt>
      <trkpt lat="47.87378" lon="5.79429">
        <ele>253.164</ele>
        <time>2019-09-25T08:46:53.001Z</time>
      </trkpt>
      <trkpt lat="47.87178" lon="5.79587">
        <ele>242.361</ele>
        <time>2019-09-25T08:47:23.001Z</time>
      </trkpt>
      <trkpt lat="47.87089" lon="5.79837">
        <ele>240.097</ele>
        <time>2019-09-25T08:47:53.001Z</time>
      </trkpt>
      <trkpt lat="47.87064" lon="5.80086">
        <ele>235.401</ele>
        <time>2019-09-25T08:48:23.001Z</time>
      </trkpt>
      <trkpt lat="47.8697" lon="5.80292">
        <ele>232.351</ele>
        <time>2019-09-25T08:48:53.001Z</time>
      </trkpt>
      <trkpt lat="47.8687" lon="5.805">
        <ele>239.057</ele>
        <time>2019-09-25T08:49:23.001Z</time>
      </trkpt>
      <trkpt lat="47.86708" lon="5.80562">
        <ele>234.311</ele>
        <time>2019-09-25T08:49:53.001Z</time>
      </trkpt>
      <trkpt lat="47.86569" lon="5.80728">
        <ele>238.041</ele>
        <time>2019-09-25T08:50:26.001Z</time>
      </trkpt>
      <trkpt lat="47.86462" lon="5.809">
        <ele>243.078</ele>
        <time>2019-09-25T08:50:56.001Z</time>
      </trkpt>
      <trkpt lat="47.86347" lon="5.81073">
        <ele>240.845</ele>
        <time>2019-09-25T08:51:26.001Z</time>
      </trkpt>
      <trkpt lat="47.86284" lon="5.8128">
        <ele>232.246</ele>
        <time>2019-09-25T08:51:56.001Z</time>
      </trkpt>
      <trkpt lat="47.8622" lon="5.81509">
        <ele>230.519</ele>
        <time>2019-09-25T08:52:26.001Z</time>
      </trkpt>
      <trkpt lat="47.86085" lon="5.81584">
        <ele>229.095</ele>
        <time>2019-09-25T08:52:56.001Z</time>
      </trkpt>
      <trkpt lat="47.85949" lon="5.81565">
        <ele>229.162</ele>
        <time>2019-09-25T08:53:26.001Z</time>
      </trkpt>
      <trkpt lat="47.8581" lon="5.81535">
        <ele>231.112</ele>
        <time>2019-09-25T08:53:56.001Z</time>
      </trkpt>
      <trkpt lat="47.85746" lon="5.81625">
        <ele>234.5</ele>
        <time>2019-09-25T08:54:26.001Z</time>
      </trkpt>
      <trkpt lat="47.8578" lon="5.81862">
        <ele>234.89</ele>
        <time>2019-09-25T08:54:56.001Z</time>
      </trkpt>
      <trkpt lat="47.85818" lon="5.82139">
        <ele>232.153</ele>
        <time>2019-09-25T08:55:26.001Z</time>
      </trkpt>
      <trkpt lat="47.85846" lon="5.82389">
        <ele>233.535</ele>
        <time>2019-09-25T08:55:56.001Z</time>
      </trkpt>
      <trkpt lat="47.85886" lon="5.82656">
        <ele>231.148</ele>
        <time>2019-09-25T08:56:29.001Z</time>
      </trkpt>
      <trkpt lat="47.8592" lon="5.82884">
        <ele>226.139</ele>
        <time>2019-09-25T08:56:59.001Z</time>
      </trkpt>
      <trkpt lat="47.85944" lon="5.83058">
        <ele>231.976</ele>
        <time>2019-09-25T08:57:29.001Z</time>
      </trkpt>
      <trkpt lat="47.85963" lon="5.83203">
        <ele>235.501</ele>
        <time>2019-09-25T08:57:59.001Z</time>
      </trkpt>
      <trkpt lat="47.85982" lon="5.83332">
        <ele>235.841</ele>
        <time>2019-09-25T08:58:29.001Z</time>
      </trkpt>
      <trkpt lat="47.86001" lon="5.83465">
        <ele>240.297</ele>
        <time>2019-09-25T08:58:59.001Z</time>
      </trkpt>
      <trkpt lat="47.86064" lon="5.83667">
        <ele>238.12</ele>
        <time>2019-09-25T08:59:29.001Z</time>
      </trkpt>
      <trkpt lat="47.86147" lon="5.8392">
        <ele>233.236</ele>
        <time>2019-09-25T08:59:59.001Z</time>
      </trkpt>
      <trkpt lat="47.86205" lon="5.842">
        <ele>229.494</ele>
        <time>2019-09-25T09:00:29.001Z</time>
      </trkpt>
      <trkpt lat="47.86259" lon="5.84494">
        <ele>226.614</ele>
        <time>2019-09-25T09:00:59.001Z</time>
      </trkpt>
      <trkpt lat="47.86302" lon="5.84705">
        <ele>226.774</ele>
        <time>2019-09-25T09:01:29.001Z</time>
      </trkpt>
      <trkpt lat="47.86405" lon="5.84697">
        <ele>229.938</ele>
        <time>2019-09-25T09:01:59.001Z</time>
      </trkpt>
      <trkpt lat="47.86495" lon="5.84706">
        <ele>240.324</ele>
        <time>2019-09-25T09:02:32.001Z</time>
      </trkpt>
      <trkpt lat="47.8654" lon="5.84835">
        <ele>237.219</ele>
        <time>2019-09-25T11:03:02Z</time>
      </trkpt>
      <trkpt lat="47.86656" lon="5.84975">
        <ele>232.914</ele>
        <time>2019-09-25T09:03:32.001Z</time>
      </trkpt>
      <trkpt lat="47.86788" lon="5.85213">
        <ele>227.089</ele>
        <time>2019-09-25T11:04:02Z</time>
      </trkpt>
      <trkpt lat="47.8685" lon="5.85323">
        <ele>233.72</ele>
        <time>2019-09-25T09:04:32.001Z</time>
      </trkpt>
      <trkpt lat="47.86916" lon="5.85443">
        <ele>236.472</ele>
        <time>2019-09-25T11:05:02Z</time>
      </trkpt>
      <trkpt lat="47.86992" lon="5.85572">
        <ele>236.816</ele>
        <time>2019-09-25T09:05:32.001Z</time>
      </trkpt>
      <trkpt lat="47.87074" lon="5.85761">
        <ele>236.785</ele>
        <time>2019-09-25T11:06:02Z</time>
      </trkpt>
      <trkpt lat="47.87188" lon="5.85933">
        <ele>235.494</ele>
        <time>2019-09-25T09:06:32.001Z</time>
      </trkpt>
      <trkpt lat="47.87289" lon="5.86074">
        <ele>237.994</ele>
        <time>2019-09-25T11:07:02Z</time>
      </trkpt>
      <trkpt lat="47.87398" lon="5.86167">
        <ele>239.117</ele>
        <time>2019-09-25T09:07:32.001Z</time>
      </trkpt>
      <trkpt lat="47.87523" lon="5.86315">
        <ele>237.828</ele>
        <time>2019-09-25T11:08:02Z</time>
      </trkpt>
      <trkpt lat="47.87675" lon="5.86472">
        <ele>234.263</ele>
        <time>2019-09-25T09:08:35.001Z</time>
      </trkpt>
      <trkpt lat="47.87823" lon="5.86634">
        <ele>232.251</ele>
        <time>2019-09-25T09:09:05.001Z</time>
      </trkpt>
      <trkpt lat="47.87726" lon="5.86843">
        <ele>234.606</ele>
        <time>2019-09-25T09:09:35.001Z</time>
      </trkpt>
      <trkpt lat="47.87645" lon="5.86988">
        <ele>233.955</ele>
        <time>2019-09-25T09:10:05.001Z</time>
      </trkpt>
      <trkpt lat="47.87513" lon="5.86948">
        <ele>234.666</ele>
        <time>2019-09-25T09:10:35.001Z</time>
      </trkpt>
      <trkpt lat="47.8743" lon="5.86967">
        <ele>242.553</ele>
        <time>2019-09-25T09:11:08.001Z</time>
      </trkpt>
      <trkpt lat="47.87362" lon="5.86985">
        <ele>244.553</ele>
        <time>2019-09-25T09:11:38.001Z</time>
      </trkpt>
      <trkpt lat="47.87295" lon="5.87005">
        <ele>246.556</ele>
        <time>2019-09-25T09:12:08.001Z</time>
      </trkpt>
      <trkpt lat="47.8722" lon="5.87023">
        <ele>249.421</ele>
        <time>2019-09-25T09:12:38.001Z</time>
      </trkpt>
      <trkpt lat="47.87149" lon="5.87046">
        <ele>251.676</ele>
        <time>2019-09-25T09:13:08.001Z</time>
      </trkpt>
      <trkpt lat="47.87082" lon="5.87082">
        <ele>253.018</ele>
        <time>2019-09-25T09:13:38.001Z</time>
      </trkpt>
      <trkpt lat="47.87046" lon="5.87177">
        <ele>256.979</ele>
        <time>2019-09-25T09:14:08.001Z</time>
      </trkpt>
      <trkpt lat="47.87057" lon="5.87308">
        <ele>259.187</ele>
        <time>2019-09-25T09:14:41.001Z</time>
      </trkpt>
      <trkpt lat="47.87067" lon="5.87426">
        <ele>261.658</ele>
        <time>2019-09-25T09:15:11.001Z</time>
      </trkpt>
      <trkpt lat="47.87075" lon="5.87543">
        <ele>265.33</ele>
        <time>2019-09-25T09:15:41.001Z</time>
      </trkpt>
      <trkpt lat="47.87103" lon="5.87659">
        <ele>266.92</ele>
        <time>2019-09-25T09:16:11.001Z</time>
      </trkpt>
      <trkpt lat="47.87129" lon="5.87765">
        <ele>270.552</ele>
        <time>2019-09-25T09:16:41.001Z</time>
      </trkpt>
      <trkpt lat="47.87088" lon="5.87864">
        <ele>277.921</ele>
        <time>2019-09-25T09:17:11.001Z</time>
      </trkpt>
      <trkpt lat="47.87051" lon="5.87968">
        <ele>277.839</ele>
        <time>2019-09-25T09:17:41.001Z</time>
      </trkpt>
      <trkpt lat="47.8701" lon="5.8807">
        <ele>278.933</ele>
        <time>2019-09-25T09:18:11.001Z</time>
      </trkpt>
      <trkpt lat="47.86942" lon="5.88135">
        <ele>283.927</ele>
        <time>2019-09-25T09:18:41.001Z</time>
      </trkpt>
      <trkpt lat="47.86828" lon="5.88212">
        <ele>281.353</ele>
        <time>2019-09-25T09:19:11.001Z</time>
      </trkpt>
      <trkpt lat="47.86632" lon="5.88341">
        <ele>270.141</ele>
        <time>2019-09-25T09:19:41.001Z</time>
      </trkpt>
      <trkpt lat="47.86384" lon="5.8851">
        <ele>255.866</ele>
        <time>2019-09-25T09:20:11.001Z</time>
      </trkpt>
      <trkpt lat="47.862" lon="5.88637">
        <ele>251.482</ele>
        <time>2019-09-25T09:20:41.001Z</time>
      </trkpt>
      <trkpt lat="47.85975" lon="5.88591">
        <ele>240.746</ele>
        <time>2019-09-25T09:21:14.001Z</time>
      </trkpt>
      <trkpt lat="47.85758" lon="5.88696">
        <ele>225.417</ele>
        <time>2019-09-25T09:21:44.001Z</time>
      </trkpt>
      <trkpt lat="47.85614" lon="5.88786">
        <ele>221.713</ele>
        <time>2019-09-25T09:22:14.001Z</time>
      </trkpt>
      <trkpt lat="47.85489" lon="5.88861">
        <ele>224.241</ele>
        <time>2019-09-25T09:22:44.001Z</time>
      </trkpt>
      <trkpt lat="47.85414" lon="5.88904">
        <ele>228.075</ele>
        <time>2019-09-25T09:23:14.001Z</time>
      </trkpt>
      <trkpt lat="47.85347" lon="5.88945">
        <ele>232.24</ele>
        <time>2019-09-25T09:23:44.001Z</time>
      </trkpt>
      <trkpt lat="47.85268" lon="5.8899">
        <ele>235.309</ele>
        <time>2019-09-25T09:24:14.001Z</time>
      </trkpt>
      <trkpt lat="47.8512" lon="5.89074">
        <ele>230.856</ele>
        <time>2019-09-25T09:24:44.001Z</time>
      </trkpt>
      <trkpt lat="47.84964" lon="5.89164">
        <ele>226.207</ele>
        <time>2019-09-25T09:25:14.001Z</time>
      </trkpt>
      <trkpt lat="47.84865" lon="5.89222">
        <ele>231.56</ele>
        <time>2019-09-25T09:25:44.001Z</time>
      </trkpt>
      <trkpt lat="47.84792" lon="5.8927">
        <ele>246.39</ele>
        <time>2019-09-25T09:26:14.001Z</time>
      </trkpt>
      <trkpt lat="47.84716" lon="5.89304">
        <ele>252.042</ele>
        <time>2019-09-25T09:26:44.001Z</time>
      </trkpt>
      <trkpt lat="47.84621" lon="5.89361">
        <ele>241.188</ele>
        <time>2019-09-25T09:27:17.001Z</time>
      </trkpt>
      <trkpt lat="47.84523" lon="5.89417">
        <ele>238.507</ele>
        <time>2019-09-25T09:27:47.001Z</time>
      </trkpt>
      <trkpt lat="47.84393" lon="5.89495">
        <ele>238.698</ele>
        <time>2019-09-25T09:28:17.001Z</time>
      </trkpt>
      <trkpt lat="47.84199" lon="5.89631">
        <ele>231.317</ele>
        <time>2019-09-25T09:28:47.001Z</time>
      </trkpt>
      <trkpt lat="47.84097" lon="5.89732">
        <ele>232.535</ele>
        <time>2019-09-25T09:29:17.001Z</time>
      </trkpt>
      <trkpt lat="47.84034" lon="5.8979">
        <ele>238.291</ele>
        <time>2019-09-25T09:29:47.001Z</time>
      </trkpt>
      <trkpt lat="47.83926" lon="5.89877">
        <ele>237.597</ele>
        <time>2019-09-25T09:30:17.001Z</time>
      </trkpt>
      <trkpt lat="47.83749" lon="5.9012">
        <ele>227.059</ele>
        <time>2019-09-25T09:30:47.001Z</time>
      </trkpt>
      <trkpt lat="47.83743" lon="5.90398">
        <ele>226.651</ele>
        <time>2019-09-25T09:31:17.001Z</time>
      </trkpt>
      <trkpt lat="47.83729" lon="5.90643">
        <ele>224.444</ele>
        <time>2019-09-25T09:31:47.001Z</time>
      </trkpt>
      <trkpt lat="47.83712" lon="5.90872">
        <ele>226.799</ele>
        <time>2019-09-25T09:32:17.001Z</time>
      </trkpt>
      <trkpt lat="47.83768" lon="5.91039">
        <ele>228.2</ele>
        <time>2019-09-25T09:32:47.001Z</time>
      </trkpt>
      <trkpt lat="47.83816" lon="5.91198">
        <ele>233.418</ele>
        <time>2019-09-25T09:33:20.001Z</time>
      </trkpt>
      <trkpt lat="47.83866" lon="5.91351">
        <ele>232.582</ele>
        <time>2019-09-25T09:33:50.001Z</time>
      </trkpt>
      <trkpt lat="47.83947" lon="5.91533">
        <ele>229.948</ele>
        <time>2019-09-25T09:34:20.001Z</time>
      </trkpt>
      <trkpt lat="47.84057" lon="5.91782">
        <ele>224.357</ele>
        <time>2019-09-25T09:34:50.001Z</time>
      </trkpt>
      <trkpt lat="47.8412" lon="5.92063">
        <ele>221.541</ele>
        <time>2019-09-25T09:35:20.001Z</time>
      </trkpt>
      <trkpt lat="47.84183" lon="5.92295">
        <ele>222.721</ele>
        <time>2019-09-25T09:35:50.001Z</time>
      </trkpt>
      <trkpt lat="47.84241" lon="5.92456">
        <ele>225.744</ele>
        <time>2019-09-25T09:36:20.001Z</time>
      </trkpt>
      <trkpt lat="47.84271" lon="5.92569">
        <ele>233.988</ele>
        <time>2019-09-25T09:36:50.001Z</time>
      </trkpt>
      <trkpt lat="47.84274" lon="5.92608">
        <ele>232.881</ele>
        <time>2019-09-25T09:39:17.001Z</time>
      </trkpt>
      <trkpt lat="47.8425" lon="5.92765">
        <ele>232.941</ele>
        <time>2019-09-25T09:39:47.001Z</time>
      </trkpt>
      <trkpt lat="47.84234" lon="5.92949">
        <ele>228.185</ele>
        <time>2019-09-25T09:40:17.001Z</time>
      </trkpt>
      <trkpt lat="47.84151" lon="5.93051">
        <ele>234.297</ele>
        <time>2019-09-25T09:40:47.001Z</time>
      </trkpt>
      <trkpt lat="47.84099" lon="5.932">
        <ele>235.923</ele>
        <time>2019-09-25T09:41:20.001Z</time>
      </trkpt>
      <trkpt lat="47.84027" lon="5.93321">
        <ele>237.649</ele>
        <time>2019-09-25T09:41:50.001Z</time>
      </trkpt>
      <trkpt lat="47.83952" lon="5.93443">
        <ele>238.557</ele>
        <time>2019-09-25T09:42:20.001Z</time>
      </trkpt>
      <trkpt lat="47.83922" lon="5.93531">
        <ele>239.673</ele>
        <time>2019-09-25T09:42:50.001Z</time>
      </trkpt>
      <trkpt lat="47.83933" lon="5.93613">
        <ele>245.625</ele>
        <time>2019-09-25T09:43:20.001Z</time>
      </trkpt>
      <trkpt lat="47.83937" lon="5.93699">
        <ele>248.63</ele>
        <time>2019-09-25T09:43:50.001Z</time>
      </trkpt>
      <trkpt lat="47.83872" lon="5.93877">
        <ele>252.125</ele>
        <time>2019-09-25T09:44:20.001Z</time>
      </trkpt>
      <trkpt lat="47.83709" lon="5.94015">
        <ele>236.001</ele>
        <time>2019-09-25T09:44:50.001Z</time>
      </trkpt>
      <trkpt lat="47.83588" lon="5.94187">
        <ele>233.045</ele>
        <time>2019-09-25T09:45:20.001Z</time>
      </trkpt>
      <trkpt lat="47.83476" lon="5.9443">
        <ele>226.522</ele>
        <time>2019-09-25T09:45:50.001Z</time>
      </trkpt>
      <trkpt lat="47.83401" lon="5.9465">
        <ele>226.656</ele>
        <time>2019-09-25T09:46:20.001Z</time>
      </trkpt>
      <trkpt lat="47.83391" lon="5.94844">
        <ele>230.398</ele>
        <time>2019-09-25T09:46:50.001Z</time>
      </trkpt>
      <trkpt lat="47.83399" lon="5.94973">
        <ele>231.582</ele>
        <time>2019-09-25T09:47:23.001Z</time>
      </trkpt>
      <trkpt lat="47.83401" lon="5.95082">
        <ele>237.404</ele>
        <time>2019-09-25T09:47:53.001Z</time>
      </trkpt>
      <trkpt lat="47.83405" lon="5.95184">
        <ele>241.985</ele>
        <time>2019-09-25T09:48:23.001Z</time>
      </trkpt>
      <trkpt lat="47.83405" lon="5.95265">
        <ele>244.343</ele>
        <time>2019-09-25T09:48:53.001Z</time>
      </trkpt>
      <trkpt lat="47.83406" lon="5.95343">
        <ele>250.779</ele>
        <time>2019-09-25T09:49:23.001Z</time>
      </trkpt>
      <trkpt lat="47.83423" lon="5.95429">
        <ele>253.342</ele>
        <time>2019-09-25T09:49:53.001Z</time>
      </trkpt>
      <trkpt lat="47.8351" lon="5.9568">
        <ele>246.6</ele>
        <time>2019-09-25T09:50:23.001Z</time>
      </trkpt>
      <trkpt lat="47.83508" lon="5.9583">
        <ele>248.759</ele>
        <time>2019-09-25T09:50:53.001Z</time>
      </trkpt>
      <trkpt lat="47.83494" lon="5.95938">
        <ele>256.048</ele>
        <time>2019-09-25T09:51:23.001Z</time>
      </trkpt>
      <trkpt lat="47.8346" lon="5.96022">
        <ele>265.128</ele>
        <time>2019-09-25T09:51:53.001Z</time>
      </trkpt>
      <trkpt lat="47.83363" lon="5.96116">
        <ele>263.785</ele>
        <time>2019-09-25T09:52:23.001Z</time>
      </trkpt>
      <trkpt lat="47.83301" lon="5.9631">
        <ele>254.007</ele>
        <time>2019-09-25T09:52:53.001Z</time>
      </trkpt>
      <trkpt lat="47.83209" lon="5.9653">
        <ele>251.44</ele>
        <time>2019-09-25T09:53:26.001Z</time>
      </trkpt>
      <trkpt lat="47.82977" lon="5.96681">
        <ele>247.46</ele>
        <time>2019-09-25T09:53:56.001Z</time>
      </trkpt>
      <trkpt lat="47.8286" lon="5.96971">
        <ele>239.786</ele>
        <time>2019-09-25T09:54:26.001Z</time>
      </trkpt>
      <trkpt lat="47.82764" lon="5.97358">
        <ele>224.555</ele>
        <time>2019-09-25T09:54:56.001Z</time>
      </trkpt>
      <trkpt lat="47.82727" lon="5.97611">
        <ele>221.419</ele>
        <time>2019-09-25T09:55:26.001Z</time>
      </trkpt>
      <trkpt lat="47.82702" lon="5.97753">
        <ele>229.368</ele>
        <time>2019-09-25T09:55:56.001Z</time>
      </trkpt>
      <trkpt lat="47.82588" lon="5.97778">
        <ele>232.016</ele>
        <time>2019-09-25T09:56:26.001Z</time>
      </trkpt>
      <trkpt lat="47.82444" lon="5.97772">
        <ele>229.694</ele>
        <time>2019-09-25T09:56:56.001Z</time>
      </trkpt>
      <trkpt lat="47.82308" lon="5.97798">
        <ele>228.214</ele>
        <time>2019-09-25T09:57:26.001Z</time>
      </trkpt>
      <trkpt lat="47.82162" lon="5.97773">
        <ele>224.501</ele>
        <time>2019-09-25T09:57:56.001Z</time>
      </trkpt>
      <trkpt lat="47.82005" lon="5.97833">
        <ele>217.669</ele>
        <time>2019-09-25T09:58:26.001Z</time>
      </trkpt>
      <trkpt lat="47.81889" lon="5.97964">
        <ele>217.515</ele>
        <time>2019-09-25T09:58:56.001Z</time>
      </trkpt>
      <trkpt lat="47.81789" lon="5.9812">
        <ele>219.669</ele>
        <time>2019-09-25T09:59:29.001Z</time>
      </trkpt>
      <trkpt lat="47.81658" lon="5.98223">
        <ele>218.199</ele>
        <time>2019-09-25T09:59:59.001Z</time>
      </trkpt>
      <trkpt lat="47.81519" lon="5.98303">
        <ele>221.156</ele>
        <time>2019-09-25T10:00:29.001Z</time>
      </trkpt>
      <trkpt lat="47.81483" lon="5.98358">
        <ele>217.878</ele>
        <time>2019-09-25T10:06:29.001Z</time>
      </trkpt>
      <trkpt lat="47.81482" lon="5.98354">
        <ele>216.467</ele>
        <time>2019-09-25T10:24:44.001Z</time>
      </trkpt>
      <trkpt lat="47.81466" lon="5.98387">
        <ele>214.29</ele>
        <time>2019-09-25T10:31:20.001Z</time>
      </trkpt>
      <trkpt lat="47.81446" lon="5.98476">
        <ele>213.414</ele>
        <time>2019-09-25T10:33:59.001Z</time>
      </trkpt>
      <trkpt lat="47.8135" lon="5.98567">
        <ele>208.773</ele>
        <time>2019-09-25T10:34:29.001Z</time>
      </trkpt>
      <trkpt lat="47.81255" lon="5.98621">
        <ele>206.605</ele>
        <time>2019-09-25T10:34:59.001Z</time>
      </trkpt>
      <trkpt lat="47.81132" lon="5.98663">
        <ele>207.752</ele>
        <time>2019-09-25T10:35:29.001Z</time>
      </trkpt>
      <trkpt lat="47.81022" lon="5.98705">
        <ele>210.583</ele>
        <time>2019-09-25T10:35:59.001Z</time>
      </trkpt>
      <trkpt lat="47.80929" lon="5.98813">
        <ele>213.14</ele>
        <time>2019-09-25T10:36:29.001Z</time>
      </trkpt>
      <trkpt lat="47.80816" lon="5.98947">
        <ele>208.673</ele>
        <time>2019-09-25T12:37:02Z</time>
      </trkpt>
      <trkpt lat="47.80705" lon="5.99051">
        <ele>209.458</ele>
        <time>2019-09-25T10:37:32.001Z</time>
      </trkpt>
      <trkpt lat="47.80581" lon="5.99122">
        <ele>208.937</ele>
        <time>2019-09-25T12:38:02Z</time>
      </trkpt>
      <trkpt lat="47.80456" lon="5.99192">
        <ele>210.452</ele>
        <time>2019-09-25T10:38:32.001Z</time>
      </trkpt>
      <trkpt lat="47.80326" lon="5.99261">
        <ele>213.37</ele>
        <time>2019-09-25T12:39:02Z</time>
      </trkpt>
      <trkpt lat="47.80197" lon="5.99345">
        <ele>211.702</ele>
        <time>2019-09-25T10:39:32.001Z</time>
      </trkpt>
      <trkpt lat="47.80084" lon="5.99413">
        <ele>208.022</ele>
        <time>2019-09-25T12:40:02Z</time>
      </trkpt>
      <trkpt lat="47.7997" lon="5.99511">
        <ele>207.884</ele>
        <time>2019-09-25T10:40:32.001Z</time>
      </trkpt>
      <trkpt lat="47.7985" lon="5.99613">
        <ele>207.257</ele>
        <time>2019-09-25T12:41:02Z</time>
      </trkpt>
      <trkpt lat="47.79732" lon="5.99696">
        <ele>205.413</ele>
        <time>2019-09-25T10:41:32.001Z</time>
      </trkpt>
      <trkpt lat="47.79616" lon="5.99786">
        <ele>204.936</ele>
        <time>2019-09-25T12:42:02Z</time>
      </trkpt>
      <trkpt lat="47.79509" lon="5.99871">
        <ele>207.331</ele>
        <time>2019-09-25T10:42:32.001Z</time>
      </trkpt>
      <trkpt lat="47.79408" lon="5.99952">
        <ele>209.403</ele>
        <time>2019-09-25T10:43:05.001Z</time>
      </trkpt>
      <trkpt lat="47.79284" lon="6.00045">
        <ele>207.195</ele>
        <time>2019-09-25T10:43:35.001Z</time>
      </trkpt>
      <trkpt lat="47.79165" lon="6.00157">
        <ele>208.043</ele>
        <time>2019-09-25T10:44:05.001Z</time>
      </trkpt>
      <trkpt lat="47.79057" lon="6.00261">
        <ele>211.2</ele>
        <time>2019-09-25T10:44:35.001Z</time>
      </trkpt>
      <trkpt lat="47.78984" lon="6.0038">
        <ele>220.028</ele>
        <time>2019-09-25T10:45:05.001Z</time>
      </trkpt>
      <trkpt lat="47.78944" lon="6.00483">
        <ele>224.794</ele>
        <time>2019-09-25T10:45:35.001Z</time>
      </trkpt>
      <trkpt lat="47.78897" lon="6.00567">
        <ele>229.03</ele>
        <time>2019-09-25T10:46:05.001Z</time>
      </trkpt>
      <trkpt lat="47.78814" lon="6.00712">
        <ele>222.65</ele>
        <time>2019-09-25T10:46:35.001Z</time>
      </trkpt>
      <trkpt lat="47.7876" lon="6.00848">
        <ele>223.39</ele>
        <time>2019-09-25T10:47:05.001Z</time>
      </trkpt>
      <trkpt lat="47.78712" lon="6.00922">
        <ele>226.451</ele>
        <time>2019-09-25T10:47:35.001Z</time>
      </trkpt>
      <trkpt lat="47.78653" lon="6.01001">
        <ele>226.858</ele>
        <time>2019-09-25T10:48:05.001Z</time>
      </trkpt>
      <trkpt lat="47.78632" lon="6.01144">
        <ele>226.127</ele>
        <time>2019-09-25T10:48:35.001Z</time>
      </trkpt>
      <trkpt lat="47.78513" lon="6.01344">
        <ele>220.055</ele>
        <time>2019-09-25T10:49:08.001Z</time>
      </trkpt>
      <trkpt lat="47.78407" lon="6.01523">
        <ele>217.876</ele>
        <time>2019-09-25T10:49:38.001Z</time>
      </trkpt>
      <trkpt lat="47.78231" lon="6.01623">
        <ele>212.972</ele>
        <time>2019-09-25T10:50:08.001Z</time>
      </trkpt>
      <trkpt lat="47.78099" lon="6.01744">
        <ele>212.093</ele>
        <time>2019-09-25T10:50:38.001Z</time>
      </trkpt>
      <trkpt lat="47.77986" lon="6.01869">
        <ele>213.476</ele>
        <time>2019-09-25T10:51:08.001Z</time>
      </trkpt>
      <trkpt lat="47.77869" lon="6.01999">
        <ele>212.066</ele>
        <time>2019-09-25T10:51:38.001Z</time>
      </trkpt>
      <trkpt lat="47.77761" lon="6.02126">
        <ele>214.132</ele>
        <time>2019-09-25T10:52:08.001Z</time>
      </trkpt>
      <trkpt lat="47.77653" lon="6.02247">
        <ele>213.828</ele>
        <time>2019-09-25T10:52:38.001Z</time>
      </trkpt>
      <trkpt lat="47.7755" lon="6.024">
        <ele>217.631</ele>
        <time>2019-09-25T10:53:08.001Z</time>
      </trkpt>
      <trkpt lat="47.77441" lon="6.02555">
        <ele>213.198</ele>
        <time>2019-09-25T10:53:38.001Z</time>
      </trkpt>
      <trkpt lat="47.7734" lon="6.02703">
        <ele>210.637</ele>
        <time>2019-09-25T10:54:08.001Z</time>
      </trkpt>
      <trkpt lat="47.77257" lon="6.02864">
        <ele>209.727</ele>
        <time>2019-09-25T10:54:38.001Z</time>
      </trkpt>
      <trkpt lat="47.77186" lon="6.03024">
        <ele>212.436</ele>
        <time>2019-09-25T10:55:11.001Z</time>
      </trkpt>
      <trkpt lat="47.77129" lon="6.03138">
        <ele>219.002</ele>
        <time>2019-09-25T10:55:41.001Z</time>
      </trkpt>
      <trkpt lat="47.77024" lon="6.03223">
        <ele>219.012</ele>
        <time>2019-09-25T10:56:11.001Z</time>
      </trkpt>
      <trkpt lat="47.769" lon="6.03299">
        <ele>218.266</ele>
        <time>2019-09-25T10:56:41.001Z</time>
      </trkpt>
      <trkpt lat="47.76769" lon="6.03376">
        <ele>217.891</ele>
        <time>2019-09-25T10:57:11.001Z</time>
      </trkpt>
      <trkpt lat="47.76641" lon="6.03447">
        <ele>220.42</ele>
        <time>2019-09-25T10:57:41.001Z</time>
      </trkpt>
      <trkpt lat="47.76557" lon="6.03499">
        <ele>215.133</ele>
        <time>2019-09-25T11:00:53.001Z</time>
      </trkpt>
      <trkpt lat="47.76439" lon="6.03568">
        <ele>212.06</ele>
        <time>2019-09-25T11:01:23.001Z</time>
      </trkpt>
      <trkpt lat="47.7635" lon="6.03656">
        <ele>215.852</ele>
        <time>2019-09-25T11:01:53.001Z</time>
      </trkpt>
      <trkpt lat="47.76411" lon="6.03788">
        <ele>218.27</ele>
        <time>2019-09-25T11:02:23.001Z</time>
      </trkpt>
      <trkpt lat="47.76484" lon="6.03903">
        <ele>216.885</ele>
        <time>2019-09-25T11:02:53.001Z</time>
      </trkpt>
      <trkpt lat="47.76571" lon="6.04043">
        <ele>224.328</ele>
        <time>2019-09-25T11:03:23.001Z</time>
      </trkpt>
      <trkpt lat="47.76615" lon="6.04227">
        <ele>225.026</ele>
        <time>2019-09-25T11:03:56.001Z</time>
      </trkpt>
      <trkpt lat="47.76658" lon="6.04414">
        <ele>221.799</ele>
        <time>2019-09-25T11:04:26.001Z</time>
      </trkpt>
      <trkpt lat="47.76715" lon="6.04576">
        <ele>227.936</ele>
        <time>2019-09-25T11:04:56.001Z</time>
      </trkpt>
      <trkpt lat="47.76757" lon="6.04722">
        <ele>227.245</ele>
        <time>2019-09-25T11:05:26.001Z</time>
      </trkpt>
      <trkpt lat="47.76791" lon="6.04869">
        <ele>223.189</ele>
        <time>2019-09-25T11:05:56.001Z</time>
      </trkpt>
      <trkpt lat="47.76834" lon="6.05034">
        <ele>224.3</ele>
        <time>2019-09-25T11:06:26.001Z</time>
      </trkpt>
      <trkpt lat="47.76905" lon="6.05211">
        <ele>230.385</ele>
        <time>2019-09-25T11:06:56.001Z</time>
      </trkpt>
      <trkpt lat="47.7698" lon="6.0539">
        <ele>233.841</ele>
        <time>2019-09-25T11:07:26.001Z</time>
      </trkpt>
      <trkpt lat="47.77046" lon="6.056">
        <ele>233.862</ele>
        <time>2019-09-25T11:07:56.001Z</time>
      </trkpt>
      <trkpt lat="47.77091" lon="6.05835">
        <ele>222.798</ele>
        <time>2019-09-25T11:08:26.001Z</time>
      </trkpt>
      <trkpt lat="47.77136" lon="6.06036">
        <ele>221.78</ele>
        <time>2019-09-25T11:08:56.001Z</time>
      </trkpt>
      <trkpt lat="47.7719" lon="6.0624">
        <ele>226.537</ele>
        <time>2019-09-25T11:09:26.001Z</time>
      </trkpt>
      <trkpt lat="47.77256" lon="6.06452">
        <ele>231.689</ele>
        <time>2019-09-25T11:09:59.001Z</time>
      </trkpt>
      <trkpt lat="47.77314" lon="6.06651">
        <ele>230.978</ele>
        <time>2019-09-25T11:10:29.001Z</time>
      </trkpt>
      <trkpt lat="47.77358" lon="6.06836">
        <ele>232.019</ele>
        <time>2019-09-25T11:10:59.001Z</time>
      </trkpt>
      <trkpt lat="47.77406" lon="6.07013">
        <ele>236.488</ele>
        <time>2019-09-25T11:11:29.001Z</time>
      </trkpt>
      <trkpt lat="47.77467" lon="6.07172">
        <ele>235.379</ele>
        <time>2019-09-25T11:11:59.001Z</time>
      </trkpt>
      <trkpt lat="47.77536" lon="6.07317">
        <ele>236.114</ele>
        <time>2019-09-25T11:12:29.001Z</time>
      </trkpt>
      <trkpt lat="47.77593" lon="6.07437">
        <ele>239.134</ele>
        <time>2019-09-25T11:12:59.001Z</time>
      </trkpt>
      <trkpt lat="47.77558" lon="6.0755">
        <ele>235.367</ele>
        <time>2019-09-25T11:13:29.001Z</time>
      </trkpt>
      <trkpt lat="47.77391" lon="6.07638">
        <ele>230.457</ele>
        <time>2019-09-25T11:13:59.001Z</time>
      </trkpt>
      <trkpt lat="47.77198" lon="6.07764">
        <ele>226.056</ele>
        <time>2019-09-25T11:14:29.001Z</time>
      </trkpt>
      <trkpt lat="47.77109" lon="6.08032">
        <ele>221.697</ele>
        <time>2019-09-25T11:14:59.001Z</time>
      </trkpt>
      <trkpt lat="47.77071" lon="6.0822">
        <ele>226.548</ele>
        <time>2019-09-25T11:15:29.001Z</time>
      </trkpt>
      <trkpt lat="47.77031" lon="6.08359">
        <ele>230.873</ele>
        <time>2019-09-25T13:16:02Z</time>
      </trkpt>
      <trkpt lat="47.76986" lon="6.0849">
        <ele>234.647</ele>
        <time>2019-09-25T11:16:32.001Z</time>
      </trkpt>
      <trkpt lat="47.76931" lon="6.08615">
        <ele>235.803</ele>
        <time>2019-09-25T13:17:02Z</time>
      </trkpt>
      <trkpt lat="47.76837" lon="6.0879">
        <ele>231.342</ele>
        <time>2019-09-25T11:17:32.001Z</time>
      </trkpt>
      <trkpt lat="47.76725" lon="6.08945">
        <ele>230.341</ele>
        <time>2019-09-25T13:18:02Z</time>
      </trkpt>
      <trkpt lat="47.76631" lon="6.09199">
        <ele>223.693</ele>
        <time>2019-09-25T11:18:32.001Z</time>
      </trkpt>
      <trkpt lat="47.76615" lon="6.09441">
        <ele>224.144</ele>
        <time>2019-09-25T13:19:02Z</time>
      </trkpt>
      <trkpt lat="47.76614" lon="6.09712">
        <ele>221.363</ele>
        <time>2019-09-25T11:19:32.001Z</time>
      </trkpt>
      <trkpt lat="47.7662" lon="6.09981">
        <ele>216.654</ele>
        <time>2019-09-25T13:20:02Z</time>
      </trkpt>
      <trkpt lat="47.76621" lon="6.10221">
        <ele>217.337</ele>
        <time>2019-09-25T11:20:32.001Z</time>
      </trkpt>
      <trkpt lat="47.76484" lon="6.10304">
        <ele>222.788</ele>
        <time>2019-09-25T13:21:02Z</time>
      </trkpt>
      <trkpt lat="47.7633" lon="6.10325">
        <ele>223.802</ele>
        <time>2019-09-25T11:21:32.001Z</time>
      </trkpt>
      <trkpt lat="47.7617" lon="6.10334">
        <ele>224.878</ele>
        <time>2019-09-25T11:22:05.001Z</time>
      </trkpt>
      <trkpt lat="47.76065" lon="6.10392">
        <ele>219.977</ele>
        <time>2019-09-25T11:22:35.001Z</time>
      </trkpt>
      <trkpt lat="47.76064" lon="6.10556">
        <ele>216.917</ele>
        <time>2019-09-25T11:23:05.001Z</time>
      </trkpt>
      <trkpt lat="47.76129" lon="6.10729">
        <ele>219.449</ele>
        <time>2019-09-25T11:23:35.001Z</time>
      </trkpt>
      <trkpt lat="47.76198" lon="6.10881">
        <ele>223.116</ele>
        <time>2019-09-25T11:24:05.001Z</time>
      </trkpt>
      <trkpt lat="47.76242" lon="6.10972">
        <ele>226.277</ele>
        <time>2019-09-25T11:24:35.001Z</time>
      </trkpt>
      <trkpt lat="47.76282" lon="6.11056">
        <ele>231.684</ele>
        <time>2019-09-25T11:25:05.001Z</time>
      </trkpt>
      <trkpt lat="47.76346" lon="6.11202">
        <ele>236.166</ele>
        <time>2019-09-25T11:25:35.001Z</time>
      </trkpt>
      <trkpt lat="47.76395" lon="6.11411">
        <ele>240.368</ele>
        <time>2019-09-25T11:26:05.001Z</time>
      </trkpt>
      <trkpt lat="47.76387" lon="6.11622">
        <ele>237.357</ele>
        <time>2019-09-25T11:26:35.001Z</time>
      </trkpt>
      <trkpt lat="47.76356" lon="6.11796">
        <ele>227.328</ele>
        <time>2019-09-25T11:27:05.001Z</time>
      </trkpt>
      <trkpt lat="47.76297" lon="6.11961">
        <ele>230.113</ele>
        <time>2019-09-25T11:27:35.001Z</time>
      </trkpt>
      <trkpt lat="47.76217" lon="6.12058">
        <ele>229.89</ele>
        <time>2019-09-25T11:28:08.001Z</time>
      </trkpt>
      <trkpt lat="47.76153" lon="6.12137">
        <ele>233.912</ele>
        <time>2019-09-25T11:28:38.001Z</time>
      </trkpt>
      <trkpt lat="47.76027" lon="6.12288">
        <ele>229.578</ele>
        <time>2019-09-25T11:29:08.001Z</time>
      </trkpt>
      <trkpt lat="47.7591" lon="6.12498">
        <ele>226.429</ele>
        <time>2019-09-25T11:29:38.001Z</time>
      </trkpt>
      <trkpt lat="47.75901" lon="6.12749">
        <ele>227.837</ele>
        <time>2019-09-25T11:30:08.001Z</time>
      </trkpt>
      <trkpt lat="47.75782" lon="6.12876">
        <ele>222.429</ele>
        <time>2019-09-25T11:30:38.001Z</time>
      </trkpt>
      <trkpt lat="47.75671" lon="6.12977">
        <ele>227.458</ele>
        <time>2019-09-25T11:31:08.001Z</time>
      </trkpt>
      <trkpt lat="47.75588" lon="6.13088">
        <ele>234.562</ele>
        <time>2019-09-25T11:31:38.001Z</time>
      </trkpt>
      <trkpt lat="47.75494" lon="6.13175">
        <ele>229.697</ele>
        <time>2019-09-25T11:32:08.001Z</time>
      </trkpt>
      <trkpt lat="47.75406" lon="6.13245">
        <ele>232.096</ele>
        <time>2019-09-25T11:32:38.001Z</time>
      </trkpt>
      <trkpt lat="47.75329" lon="6.13315">
        <ele>234.793</ele>
        <time>2019-09-25T11:33:08.001Z</time>
      </trkpt>
      <trkpt lat="47.75268" lon="6.13397">
        <ele>235.738</ele>
        <time>2019-09-25T11:33:38.001Z</time>
      </trkpt>
      <trkpt lat="47.75203" lon="6.13454">
        <ele>240.458</ele>
        <time>2019-09-25T11:34:11.001Z</time>
      </trkpt>
      <trkpt lat="47.75189" lon="6.13478">
        <ele>242.346</ele>
        <time>2019-09-25T11:40:29.001Z</time>
      </trkpt>
      <trkpt lat="47.75319" lon="6.13397">
        <ele>241.323</ele>
        <time>2019-09-25T11:40:59.001Z</time>
      </trkpt>
      <trkpt lat="47.75427" lon="6.13356">
        <ele>243.974</ele>
        <time>2019-09-25T11:41:29.001Z</time>
      </trkpt>
      <trkpt lat="47.75543" lon="6.13318">
        <ele>243.616</ele>
        <time>2019-09-25T11:41:59.001Z</time>
      </trkpt>
      <trkpt lat="47.75641" lon="6.13266">
        <ele>244.53</ele>
        <time>2019-09-25T11:42:29.001Z</time>
      </trkpt>
      <trkpt lat="47.75747" lon="6.13188">
        <ele>248.167</ele>
        <time>2019-09-25T11:42:59.001Z</time>
      </trkpt>
      <trkpt lat="47.75803" lon="6.13285">
        <ele>246.06</ele>
        <time>2019-09-25T11:43:29.001Z</time>
      </trkpt>
      <trkpt lat="47.75845" lon="6.13384">
        <ele>248.794</ele>
        <time>2019-09-25T11:43:59.001Z</time>
      </trkpt>
      <trkpt lat="47.7592" lon="6.13492">
        <ele>247.444</ele>
        <time>2019-09-25T11:44:29.001Z</time>
      </trkpt>
      <trkpt lat="47.76017" lon="6.13599">
        <ele>247.997</ele>
        <time>2019-09-25T11:44:59.001Z</time>
      </trkpt>
      <trkpt lat="47.76097" lon="6.13701">
        <ele>253.637</ele>
        <time>2019-09-25T11:45:29.001Z</time>
      </trkpt>
      <trkpt lat="47.76166" lon="6.13872">
        <ele>252.77</ele>
        <time>2019-09-25T13:46:02Z</time>
      </trkpt>
      <trkpt lat="47.76178" lon="6.14164">
        <ele>246.691</ele>
        <time>2019-09-25T11:46:32.001Z</time>
      </trkpt>
      <trkpt lat="47.76168" lon="6.14376">
        <ele>247.118</ele>
        <time>2019-09-25T13:47:02Z</time>
      </trkpt>
      <trkpt lat="47.76162" lon="6.14519">
        <ele>250.852</ele>
        <time>2019-09-25T11:47:32.001Z</time>
      </trkpt>
      <trkpt lat="47.76155" lon="6.14647">
        <ele>254.77</ele>
        <time>2019-09-25T13:48:02Z</time>
      </trkpt>
      <trkpt lat="47.76131" lon="6.14835">
        <ele>254.135</ele>
        <time>2019-09-25T11:48:32.001Z</time>
      </trkpt>
      <trkpt lat="47.76154" lon="6.15104">
        <ele>249.689</ele>
        <time>2019-09-25T13:49:02Z</time>
      </trkpt>
      <trkpt lat="47.7618" lon="6.15257">
        <ele>253.871</ele>
        <time>2019-09-25T11:49:32.001Z</time>
      </trkpt>
      <trkpt lat="47.76182" lon="6.15404">
        <ele>259.288</ele>
        <time>2019-09-25T13:50:02Z</time>
      </trkpt>
      <trkpt lat="47.76177" lon="6.15595">
        <ele>257.065</ele>
        <time>2019-09-25T11:50:32.001Z</time>
      </trkpt>
      <trkpt lat="47.76195" lon="6.15814">
        <ele>254.665</ele>
        <time>2019-09-25T13:51:02Z</time>
      </trkpt>
      <trkpt lat="47.7622" lon="6.15988">
        <ele>256.635</ele>
        <time>2019-09-25T11:51:32.001Z</time>
      </trkpt>
      <trkpt lat="47.76277" lon="6.16133">
        <ele>261.24</ele>
        <time>2019-09-25T11:52:05.001Z</time>
      </trkpt>
      <trkpt lat="47.76295" lon="6.16368">
        <ele>261.871</ele>
        <time>2019-09-25T11:52:35.001Z</time>
      </trkpt>
      <trkpt lat="47.76329" lon="6.16557">
        <ele>260.136</ele>
        <time>2019-09-25T11:53:05.001Z</time>
      </trkpt>
      <trkpt lat="47.76371" lon="6.16664">
        <ele>262.607</ele>
        <time>2019-09-25T11:53:35.001Z</time>
      </trkpt>
      <trkpt lat="47.76414" lon="6.1677">
        <ele>265.525</ele>
        <time>2019-09-25T11:54:05.001Z</time>
      </trkpt>
      <trkpt lat="47.76479" lon="6.16879">
        <ele>267.599</ele>
        <time>2019-09-25T11:54:35.001Z</time>
      </trkpt>
      <trkpt lat="47.76562" lon="6.17004">
        <ele>271.495</ele>
        <time>2019-09-25T11:55:05.001Z</time>
      </trkpt>
      <trkpt lat="47.76631" lon="6.17096">
        <ele>274.017</ele>
        <time>2019-09-25T11:55:35.001Z</time>
      </trkpt>
      <trkpt lat="47.76703" lon="6.17207">
        <ele>273.924</ele>
        <time>2019-09-25T11:56:05.001Z</time>
      </trkpt>
      <trkpt lat="47.76762" lon="6.1734">
        <ele>272.489</ele>
        <time>2019-09-25T11:56:35.001Z</time>
      </trkpt>
      <trkpt lat="47.76851" lon="6.17553">
        <ele>271.365</ele>
        <time>2019-09-25T11:57:05.001Z</time>
      </trkpt>
      <trkpt lat="47.76933" lon="6.1781">
        <ele>268.508</ele>
        <time>2019-09-25T11:57:35.001Z</time>
      </trkpt>
      <trkpt lat="47.76905" lon="6.18022">
        <ele>270.337</ele>
        <time>2019-09-25T11:58:08.001Z</time>
      </trkpt>
      <trkpt lat="47.76894" lon="6.18186">
        <ele>272.708</ele>
        <time>2019-09-25T11:58:38.001Z</time>
      </trkpt>
      <trkpt lat="47.76886" lon="6.18343">
        <ele>274.999</ele>
        <time>2019-09-25T11:59:08.001Z</time>
      </trkpt>
      <trkpt lat="47.76876" lon="6.18472">
        <ele>277.091</ele>
        <time>2019-09-25T11:59:38.001Z</time>
      </trkpt>
      <trkpt lat="47.76867" lon="6.18611">
        <ele>283.53</ele>
        <time>2019-09-25T12:00:08.001Z</time>
      </trkpt>
      <trkpt lat="47.76876" lon="6.18779">
        <ele>281.511</ele>
        <time>2019-09-25T12:00:38.001Z</time>
      </trkpt>
      <trkpt lat="47.76893" lon="6.18954">
        <ele>280.83</ele>
        <time>2019-09-25T12:01:08.001Z</time>
      </trkpt>
      <trkpt lat="47.77017" lon="6.1918">
        <ele>274.214</ele>
        <time>2019-09-25T12:01:38.001Z</time>
      </trkpt>
      <trkpt lat="47.77097" lon="6.19604">
        <ele>262.534</ele>
        <time>2019-09-25T12:02:08.001Z</time>
      </trkpt>
      <trkpt lat="47.77148" lon="6.19858">
        <ele>261.549</ele>
        <time>2019-09-25T12:02:38.001Z</time>
      </trkpt>
      <trkpt lat="47.7715" lon="6.20083">
        <ele>262.149</ele>
        <time>2019-09-25T12:03:08.001Z</time>
      </trkpt>
      <trkpt lat="47.77136" lon="6.20204">
        <ele>268.229</ele>
        <time>2019-09-25T12:03:38.001Z</time>
      </trkpt>
      <trkpt lat="47.77128" lon="6.20312">
        <ele>270.418</ele>
        <time>2019-09-25T12:04:11.001Z</time>
      </trkpt>
      <trkpt lat="47.77122" lon="6.20403">
        <ele>279.15</ele>
        <time>2019-09-25T12:04:41.001Z</time>
      </trkpt>
      <trkpt lat="47.77103" lon="6.20547">
        <ele>271.525</ele>
        <time>2019-09-25T12:05:11.001Z</time>
      </trkpt>
      <trkpt lat="47.77087" lon="6.20848">
        <ele>263.696</ele>
        <time>2019-09-25T12:05:41.001Z</time>
      </trkpt>
      <trkpt lat="47.77052" lon="6.21093">
        <ele>260.605</ele>
        <time>2019-09-25T12:06:11.001Z</time>
      </trkpt>
      <trkpt lat="47.76995" lon="6.21418">
        <ele>256.495</ele>
        <time>2019-09-25T12:06:41.001Z</time>
      </trkpt>
      <trkpt lat="47.76947" lon="6.21696">
        <ele>253.558</ele>
        <time>2019-09-25T12:07:11.001Z</time>
      </trkpt>
      <trkpt lat="47.76922" lon="6.21845">
        <ele>260.029</ele>
        <time>2019-09-25T12:07:41.001Z</time>
      </trkpt>
      <trkpt lat="47.76903" lon="6.21953">
        <ele>261.987</ele>
        <time>2019-09-25T12:08:11.001Z</time>
      </trkpt>
      <trkpt lat="47.76825" lon="6.22209">
        <ele>253.867</ele>
        <time>2019-09-25T12:08:41.001Z</time>
      </trkpt>
      <trkpt lat="47.76832" lon="6.22539">
        <ele>247.947</ele>
        <time>2019-09-25T12:09:11.001Z</time>
      </trkpt>
      <trkpt lat="47.76894" lon="6.22727">
        <ele>250.022</ele>
        <time>2019-09-25T12:09:41.001Z</time>
      </trkpt>
      <trkpt lat="47.76954" lon="6.22916">
        <ele>254.762</ele>
        <time>2019-09-25T12:10:14.001Z</time>
      </trkpt>
      <trkpt lat="47.76991" lon="6.23035">
        <ele>259.696</ele>
        <time>2019-09-25T12:10:44.001Z</time>
      </trkpt>
      <trkpt lat="47.77042" lon="6.23152">
        <ele>261.483</ele>
        <time>2019-09-25T12:11:14.001Z</time>
      </trkpt>
      <trkpt lat="47.77122" lon="6.2336">
        <ele>254.615</ele>
        <time>2019-09-25T12:11:44.001Z</time>
      </trkpt>
      <trkpt lat="47.77164" lon="6.23459">
        <ele>260.327</ele>
        <time>2019-09-25T12:12:14.001Z</time>
      </trkpt>
      <trkpt lat="47.7719" lon="6.23561">
        <ele>265.339</ele>
        <time>2019-09-25T12:12:44.001Z</time>
      </trkpt>
      <trkpt lat="47.77219" lon="6.23721">
        <ele>265.374</ele>
        <time>2019-09-25T12:13:14.001Z</time>
      </trkpt>
      <trkpt lat="47.77267" lon="6.23867">
        <ele>261.649</ele>
        <time>2019-09-25T12:13:44.001Z</time>
      </trkpt>
      <trkpt lat="47.77303" lon="6.23971">
        <ele>263.801</ele>
        <time>2019-09-25T12:15:38.001Z</time>
      </trkpt>
      <trkpt lat="47.77348" lon="6.241">
        <ele>265.087</ele>
        <time>2019-09-25T12:16:08.001Z</time>
      </trkpt>
      <trkpt lat="47.77396" lon="6.24231">
        <ele>264.223</ele>
        <time>2019-09-25T12:16:38.001Z</time>
      </trkpt>
      <trkpt lat="47.77509" lon="6.24491">
        <ele>259.199</ele>
        <time>2019-09-25T12:17:08.001Z</time>
      </trkpt>
      <trkpt lat="47.77656" lon="6.24829">
        <ele>253.027</ele>
        <time>2019-09-25T12:17:41.001Z</time>
      </trkpt>
      <trkpt lat="47.77732" lon="6.25">
        <ele>258.085</ele>
        <time>2019-09-25T12:18:11.001Z</time>
      </trkpt>
      <trkpt lat="47.77776" lon="6.25102">
        <ele>264.899</ele>
        <time>2019-09-25T12:18:41.001Z</time>
      </trkpt>
      <trkpt lat="47.7783" lon="6.25233">
        <ele>266.548</ele>
        <time>2019-09-25T12:19:11.001Z</time>
      </trkpt>
      <trkpt lat="47.7792" lon="6.25468">
        <ele>262.12</ele>
        <time>2019-09-25T12:19:41.001Z</time>
      </trkpt>
      <trkpt lat="47.77976" lon="6.25606">
        <ele>262.435</ele>
        <time>2019-09-25T12:20:11.001Z</time>
      </trkpt>
      <trkpt lat="47.78026" lon="6.25735">
        <ele>264.788</ele>
        <time>2019-09-25T12:20:41.001Z</time>
      </trkpt>
      <trkpt lat="47.78074" lon="6.25857">
        <ele>268.618</ele>
        <time>2019-09-25T12:21:11.001Z</time>
      </trkpt>
      <trkpt lat="47.78121" lon="6.25974">
        <ele>271.798</ele>
        <time>2019-09-25T12:21:41.001Z</time>
      </trkpt>
      <trkpt lat="47.7817" lon="6.26098">
        <ele>276.317</ele>
        <time>2019-09-25T12:22:11.001Z</time>
      </trkpt>
      <trkpt lat="47.7822" lon="6.26223">
        <ele>284.903</ele>
        <time>2019-09-25T12:22:41.001Z</time>
      </trkpt>
      <trkpt lat="47.78272" lon="6.26358">
        <ele>283.296</ele>
        <time>2019-09-25T12:23:11.001Z</time>
      </trkpt>
      <trkpt lat="47.7833" lon="6.26505">
        <ele>282.183</ele>
        <time>2019-09-25T12:23:44.001Z</time>
      </trkpt>
      <trkpt lat="47.78382" lon="6.26771">
        <ele>280.141</ele>
        <time>2019-09-25T12:24:14.001Z</time>
      </trkpt>
      <trkpt lat="47.78451" lon="6.2712">
        <ele>271.883</ele>
        <time>2019-09-25T12:24:44.001Z</time>
      </trkpt>
      <trkpt lat="47.78502" lon="6.27396">
        <ele>268.546</ele>
        <time>2019-09-25T12:25:14.001Z</time>
      </trkpt>
      <trkpt lat="47.78549" lon="6.27635">
        <ele>273.938</ele>
        <time>2019-09-25T12:25:44.001Z</time>
      </trkpt>
      <trkpt lat="47.78578" lon="6.27788">
        <ele>276.763</ele>
        <time>2019-09-25T12:26:14.001Z</time>
      </trkpt>
      <trkpt lat="47.78581" lon="6.27941">
        <ele>278.535</ele>
        <time>2019-09-25T12:26:44.001Z</time>
      </trkpt>
      <trkpt lat="47.78567" lon="6.2812">
        <ele>278.669</ele>
        <time>2019-09-25T12:27:14.001Z</time>
      </trkpt>
      <trkpt lat="47.78546" lon="6.28409">
        <ele>271.784</ele>
        <time>2019-09-25T12:27:44.001Z</time>
      </trkpt>
      <trkpt lat="47.78534" lon="6.28688">
        <ele>271.907</ele>
        <time>2019-09-25T12:28:14.001Z</time>
      </trkpt>
      <trkpt lat="47.78506" lon="6.28968">
        <ele>264.437</ele>
        <time>2019-09-25T12:28:44.001Z</time>
      </trkpt>
      <trkpt lat="47.78423" lon="6.29139">
        <ele>266.63</ele>
        <time>2019-09-25T12:29:14.001Z</time>
      </trkpt>
      <trkpt lat="47.78288" lon="6.29374">
        <ele>259.141</ele>
        <time>2019-09-25T12:29:47.001Z</time>
      </trkpt>
      <trkpt lat="47.78288" lon="6.29615">
        <ele>256.226</ele>
        <time>2019-09-25T12:30:17.001Z</time>
      </trkpt>
      <trkpt lat="47.78279" lon="6.29908">
        <ele>256.79</ele>
        <time>2019-09-25T12:30:47.001Z</time>
      </trkpt>
      <trkpt lat="47.78294" lon="6.30115">
        <ele>257.15</ele>
        <time>2019-09-25T12:31:17.001Z</time>
      </trkpt>
      <trkpt lat="47.78444" lon="6.30356">
        <ele>248.574</ele>
        <time>2019-09-25T12:31:47.001Z</time>
      </trkpt>
      <trkpt lat="47.78585" lon="6.30557">
        <ele>249.282</ele>
        <time>2019-09-25T12:32:17.001Z</time>
      </trkpt>
      <trkpt lat="47.78719" lon="6.30755">
        <ele>251.018</ele>
        <time>2019-09-25T12:32:47.001Z</time>
      </trkpt>
      <trkpt lat="47.78818" lon="6.3098">
        <ele>251.137</ele>
        <time>2019-09-25T12:33:17.001Z</time>
      </trkpt>
      <trkpt lat="47.78899" lon="6.31212">
        <ele>254.19</ele>
        <time>2019-09-25T12:33:47.001Z</time>
      </trkpt>
      <trkpt lat="47.79022" lon="6.31381">
        <ele>252.892</ele>
        <time>2019-09-25T12:34:17.001Z</time>
      </trkpt>
      <trkpt lat="47.79142" lon="6.3152">
        <ele>249.697</ele>
        <time>2019-09-25T12:34:47.001Z</time>
      </trkpt>
      <trkpt lat="47.79263" lon="6.31667">
        <ele>251.191</ele>
        <time>2019-09-25T12:35:17.001Z</time>
      </trkpt>
      <trkpt lat="47.79171" lon="6.31843">
        <ele>252.019</ele>
        <time>2019-09-25T12:35:47.001Z</time>
      </trkpt>
      <trkpt lat="47.79069" lon="6.32017">
        <ele>252.701</ele>
        <time>2019-09-25T12:36:20.001Z</time>
      </trkpt>
      <trkpt lat="47.7898" lon="6.32175">
        <ele>253.469</ele>
        <time>2019-09-25T12:36:50.001Z</time>
      </trkpt>
      <trkpt lat="47.78894" lon="6.32343">
        <ele>254.635</ele>
        <time>2019-09-25T12:37:20.001Z</time>
      </trkpt>
      <trkpt lat="47.78797" lon="6.32496">
        <ele>251.476</ele>
        <time>2019-09-25T12:37:50.001Z</time>
      </trkpt>
      <trkpt lat="47.78702" lon="6.32655">
        <ele>252.585</ele>
        <time>2019-09-25T12:38:20.001Z</time>
      </trkpt>
      <trkpt lat="47.78617" lon="6.3282">
        <ele>254.068</ele>
        <time>2019-09-25T12:38:50.001Z</time>
      </trkpt>
      <trkpt lat="47.78525" lon="6.32985">
        <ele>255.476</ele>
        <time>2019-09-25T12:39:20.001Z</time>
      </trkpt>
      <trkpt lat="47.78427" lon="6.33142">
        <ele>258.633</ele>
        <time>2019-09-25T12:39:50.001Z</time>
      </trkpt>
      <trkpt lat="47.78339" lon="6.33321">
        <ele>258.829</ele>
        <time>2019-09-25T12:40:20.001Z</time>
      </trkpt>
      <trkpt lat="47.78241" lon="6.33487">
        <ele>262.074</ele>
        <time>2019-09-25T12:40:50.001Z</time>
      </trkpt>
      <trkpt lat="47.78129" lon="6.33634">
        <ele>259.582</ele>
        <time>2019-09-25T12:41:20.001Z</time>
      </trkpt>
      <trkpt lat="47.78025" lon="6.33796">
        <ele>258.681</ele>
        <time>2019-09-25T12:41:50.001Z</time>
      </trkpt>
      <trkpt lat="47.77917" lon="6.33991">
        <ele>260.331</ele>
        <time>2019-09-25T12:42:23.001Z</time>
      </trkpt>
      <trkpt lat="47.77817" lon="6.34137">
        <ele>261.514</ele>
        <time>2019-09-25T12:42:53.001Z</time>
      </trkpt>
      <trkpt lat="47.77713" lon="6.3425">
        <ele>262.157</ele>
        <time>2019-09-25T12:43:23.001Z</time>
      </trkpt>
      <trkpt lat="47.77738" lon="6.34449">
        <ele>262.778</ele>
        <time>2019-09-25T12:43:53.001Z</time>
      </trkpt>
      <trkpt lat="47.77764" lon="6.34562">
        <ele>261.532</ele>
        <time>2019-09-25T12:44:56.001Z</time>
      </trkpt>
      <trkpt lat="47.77751" lon="6.34755">
        <ele>267.165</ele>
        <time>2019-09-25T12:45:26.001Z</time>
      </trkpt>
      <trkpt lat="47.77719" lon="6.34937">
        <ele>267.951</ele>
        <time>2019-09-25T12:45:56.001Z</time>
      </trkpt>
      <trkpt lat="47.77714" lon="6.35115">
        <ele>265.728</ele>
        <time>2019-09-25T12:46:26.001Z</time>
      </trkpt>
      <trkpt lat="47.77668" lon="6.35284">
        <ele>261.761</ele>
        <time>2019-09-25T12:46:56.001Z</time>
      </trkpt>
      <trkpt lat="47.77592" lon="6.35451">
        <ele>260.488</ele>
        <time>2019-09-25T12:47:26.001Z</time>
      </trkpt>
      <trkpt lat="47.77517" lon="6.3562">
        <ele>258.282</ele>
        <time>2019-09-25T12:47:56.001Z</time>
      </trkpt>
      <trkpt lat="47.77451" lon="6.35781">
        <ele>258.067</ele>
        <time>2019-09-25T12:48:26.001Z</time>
      </trkpt>
      <trkpt lat="47.77471" lon="6.35988">
        <ele>260.405</ele>
        <time>2019-09-25T12:48:59.001Z</time>
      </trkpt>
      <trkpt lat="47.77381" lon="6.36124">
        <ele>261.796</ele>
        <time>2019-09-25T12:49:29.001Z</time>
      </trkpt>
      <trkpt lat="47.77348" lon="6.36212">
        <ele>259.484</ele>
        <time>2019-09-25T14:50:02Z</time>
      </trkpt>
      <trkpt lat="47.77314" lon="6.36391">
        <ele>260.535</ele>
        <time>2019-09-25T12:50:32.001Z</time>
      </trkpt>
      <trkpt lat="47.77232" lon="6.36555">
        <ele>262.415</ele>
        <time>2019-09-25T14:51:02Z</time>
      </trkpt>
      <trkpt lat="47.77115" lon="6.36639">
        <ele>268.182</ele>
        <time>2019-09-25T12:51:32.001Z</time>
      </trkpt>
      <trkpt lat="47.76996" lon="6.36567">
        <ele>261.036</ele>
        <time>2019-09-25T14:52:02Z</time>
      </trkpt>
      <trkpt lat="47.76973" lon="6.36563">
        <ele>261.621</ele>
        <time>2019-09-25T12:53:26.001Z</time>
      </trkpt>
      <trkpt lat="47.76963" lon="6.3655">
        <ele>261.394</ele>
        <time>2019-09-25T13:22:21.001Z</time>
      </trkpt>
      <trkpt lat="47.76868" lon="6.36506">
        <ele>263.745</ele>
        <time>2019-09-25T13:22:51.001Z</time>
      </trkpt>
      <trkpt lat="47.76763" lon="6.36449">
        <ele>259.852</ele>
        <time>2019-09-25T13:23:21.001Z</time>
      </trkpt>
      <trkpt lat="47.76656" lon="6.3639">
        <ele>258.805</ele>
        <time>2019-09-25T13:23:51.001Z</time>
      </trkpt>
      <trkpt lat="47.76541" lon="6.36346">
        <ele>259.035</ele>
        <time>2019-09-25T13:24:24.001Z</time>
      </trkpt>
      <trkpt lat="47.76398" lon="6.36317">
        <ele>264.173</ele>
        <time>2019-09-25T13:24:54.001Z</time>
      </trkpt>
      <trkpt lat="47.76281" lon="6.36336">
        <ele>270.178</ele>
        <time>2019-09-25T13:25:24.001Z</time>
      </trkpt>
      <trkpt lat="47.76146" lon="6.36362">
        <ele>273.74</ele>
        <time>2019-09-25T13:25:54.001Z</time>
      </trkpt>
      <trkpt lat="47.76022" lon="6.36372">
        <ele>264.676</ele>
        <time>2019-09-25T13:26:24.001Z</time>
      </trkpt>
      <trkpt lat="47.75941" lon="6.36423">
        <ele>267.998</ele>
        <time>2019-09-25T13:26:54.001Z</time>
      </trkpt>
      <trkpt lat="47.75905" lon="6.36545">
        <ele>272.62</ele>
        <time>2019-09-25T13:27:24.001Z</time>
      </trkpt>
      <trkpt lat="47.75859" lon="6.36629">
        <ele>280.18</ele>
        <time>2019-09-25T13:27:54.001Z</time>
      </trkpt>
      <trkpt lat="47.75784" lon="6.36662">
        <ele>277.512</ele>
        <time>2019-09-25T13:28:24.001Z</time>
      </trkpt>
      <trkpt lat="47.75676" lon="6.36646">
        <ele>277.373</ele>
        <time>2019-09-25T13:28:54.001Z</time>
      </trkpt>
      <trkpt lat="47.75572" lon="6.36866">
        <ele>274.712</ele>
        <time>2019-09-25T13:29:24.001Z</time>
      </trkpt>
      <trkpt lat="47.75619" lon="6.37114">
        <ele>271.193</ele>
        <time>2019-09-25T13:29:54.001Z</time>
      </trkpt>
      <trkpt lat="47.75658" lon="6.37408">
        <ele>271.754</ele>
        <time>2019-09-25T13:30:27.001Z</time>
      </trkpt>
      <trkpt lat="47.75663" lon="6.37632">
        <ele>276.991</ele>
        <time>2019-09-25T13:30:57.001Z</time>
      </trkpt>
      <trkpt lat="47.75667" lon="6.37792">
        <ele>279.513</ele>
        <time>2019-09-25T13:31:27.001Z</time>
      </trkpt>
      <trkpt lat="47.75666" lon="6.38008">
        <ele>280.252</ele>
        <time>2019-09-25T13:31:57.001Z</time>
      </trkpt>
      <trkpt lat="47.75646" lon="6.38198">
        <ele>279.1</ele>
        <time>2019-09-25T13:32:27.001Z</time>
      </trkpt>
      <trkpt lat="47.75628" lon="6.38336">
        <ele>283.028</ele>
        <time>2019-09-25T13:32:57.001Z</time>
      </trkpt>
      <trkpt lat="47.75602" lon="6.38461">
        <ele>285.469</ele>
        <time>2019-09-25T13:33:27.001Z</time>
      </trkpt>
      <trkpt lat="47.75626" lon="6.38645">
        <ele>287.53</ele>
        <time>2019-09-25T13:33:57.001Z</time>
      </trkpt>
      <trkpt lat="47.75622" lon="6.38698">
        <ele>280.688</ele>
        <time>2019-09-25T13:34:27.001Z</time>
      </trkpt>
      <trkpt lat="47.7582" lon="6.38734">
        <ele>269.761</ele>
        <time>2019-09-25T13:34:57.001Z</time>
      </trkpt>
      <trkpt lat="47.75858" lon="6.38986">
        <ele>265.708</ele>
        <time>2019-09-25T13:35:27.001Z</time>
      </trkpt>
      <trkpt lat="47.75806" lon="6.3919">
        <ele>270.5</ele>
        <time>2019-09-25T13:35:57.001Z</time>
      </trkpt>
      <trkpt lat="47.75761" lon="6.39408">
        <ele>285.138</ele>
        <time>2019-09-25T13:36:30.001Z</time>
      </trkpt>
      <trkpt lat="47.75681" lon="6.39604">
        <ele>282.15</ele>
        <time>2019-09-25T15:37:00Z</time>
      </trkpt>
      <trkpt lat="47.75595" lon="6.39797">
        <ele>274.941</ele>
        <time>2019-09-25T13:37:30.001Z</time>
      </trkpt>
      <trkpt lat="47.75507" lon="6.39983">
        <ele>269.571</ele>
        <time>2019-09-25T15:38:00Z</time>
      </trkpt>
      <trkpt lat="47.75423" lon="6.4017">
        <ele>269.772</ele>
        <time>2019-09-25T13:38:30.001Z</time>
      </trkpt>
      <trkpt lat="47.75344" lon="6.40345">
        <ele>272.145</ele>
        <time>2019-09-25T15:39:00Z</time>
      </trkpt>
      <trkpt lat="47.75259" lon="6.40508">
        <ele>273.706</ele>
        <time>2019-09-25T13:39:30.001Z</time>
      </trkpt>
      <trkpt lat="47.75169" lon="6.40671">
        <ele>275.497</ele>
        <time>2019-09-25T15:40:00Z</time>
      </trkpt>
      <trkpt lat="47.75115" lon="6.4087">
        <ele>275.1</ele>
        <time>2019-09-25T13:40:30.001Z</time>
      </trkpt>
      <trkpt lat="47.75063" lon="6.41058">
        <ele>277.867</ele>
        <time>2019-09-25T15:41:00Z</time>
      </trkpt>
      <trkpt lat="47.75016" lon="6.41269">
        <ele>280.356</ele>
        <time>2019-09-25T13:41:30.001Z</time>
      </trkpt>
      <trkpt lat="47.74974" lon="6.4147">
        <ele>280.891</ele>
        <time>2019-09-25T15:42:00Z</time>
      </trkpt>
      <trkpt lat="47.74933" lon="6.41687">
        <ele>280.595</ele>
        <time>2019-09-25T13:42:33.001Z</time>
      </trkpt>
      <trkpt lat="47.74981" lon="6.41858">
        <ele>281.034</ele>
        <time>2019-09-25T13:43:03.001Z</time>
      </trkpt>
      <trkpt lat="47.75081" lon="6.42032">
        <ele>278.957</ele>
        <time>2019-09-25T13:43:33.001Z</time>
      </trkpt>
      <trkpt lat="47.75102" lon="6.42204">
        <ele>283.024</ele>
        <time>2019-09-25T13:44:03.001Z</time>
      </trkpt>
      <trkpt lat="47.75109" lon="6.4231">
        <ele>280.329</ele>
        <time>2019-09-25T13:44:33.001Z</time>
      </trkpt>
      <trkpt lat="47.75097" lon="6.42483">
        <ele>280.981</ele>
        <time>2019-09-25T13:45:03.001Z</time>
      </trkpt>
      <trkpt lat="47.75115" lon="6.42688">
        <ele>277.45</ele>
        <time>2019-09-25T13:45:33.001Z</time>
      </trkpt>
      <trkpt lat="47.75106" lon="6.42896">
        <ele>281.764</ele>
        <time>2019-09-25T13:46:03.001Z</time>
      </trkpt>
      <trkpt lat="47.75085" lon="6.43093">
        <ele>279.986</ele>
        <time>2019-09-25T13:46:33.001Z</time>
      </trkpt>
      <trkpt lat="47.75057" lon="6.43274">
        <ele>282.452</ele>
        <time>2019-09-25T13:47:03.001Z</time>
      </trkpt>
      <trkpt lat="47.75022" lon="6.43448">
        <ele>282.001</ele>
        <time>2019-09-25T13:47:33.001Z</time>
      </trkpt>
      <trkpt lat="47.74968" lon="6.43603">
        <ele>282.244</ele>
        <time>2019-09-25T13:48:03.001Z</time>
      </trkpt>
      <trkpt lat="47.74941" lon="6.43837">
        <ele>282.607</ele>
        <time>2019-09-25T13:48:36.001Z</time>
      </trkpt>
      <trkpt lat="47.74997" lon="6.44034">
        <ele>281.189</ele>
        <time>2019-09-25T13:49:06.001Z</time>
      </trkpt>
      <trkpt lat="47.74977" lon="6.44226">
        <ele>284.86</ele>
        <time>2019-09-25T13:49:36.001Z</time>
      </trkpt>
      <trkpt lat="47.74991" lon="6.44398">
        <ele>279.597</ele>
        <time>2019-09-25T13:50:06.001Z</time>
      </trkpt>
      <trkpt lat="47.74954" lon="6.44544">
        <ele>286.842</ele>
        <time>2019-09-25T13:50:36.001Z</time>
      </trkpt>
      <trkpt lat="47.7501" lon="6.44678">
        <ele>289.707</ele>
        <time>2019-09-25T13:51:06.001Z</time>
      </trkpt>
      <trkpt lat="47.75027" lon="6.44792">
        <ele>291.241</ele>
        <time>2019-09-25T13:51:36.001Z</time>
      </trkpt>
      <trkpt lat="47.74922" lon="6.44789">
        <ele>286.973</ele>
        <time>2019-09-25T13:52:06.001Z</time>
      </trkpt>
      <trkpt lat="47.74807" lon="6.44868">
        <ele>288.194</ele>
        <time>2019-09-25T13:52:36.001Z</time>
      </trkpt>
      <trkpt lat="47.74702" lon="6.44935">
        <ele>291.5</ele>
        <time>2019-09-25T13:53:06.001Z</time>
      </trkpt>
      <trkpt lat="47.74625" lon="6.45056">
        <ele>290.801</ele>
        <time>2019-09-25T13:53:36.001Z</time>
      </trkpt>
      <trkpt lat="47.74523" lon="6.4519">
        <ele>290.007</ele>
        <time>2019-09-25T13:54:06.001Z</time>
      </trkpt>
      <trkpt lat="47.74369" lon="6.45203">
        <ele>291.592</ele>
        <time>2019-09-25T13:54:39.001Z</time>
      </trkpt>
      <trkpt lat="47.74239" lon="6.45225">
        <ele>296.729</ele>
        <time>2019-09-25T13:55:09.001Z</time>
      </trkpt>
      <trkpt lat="47.74122" lon="6.45257">
        <ele>291.667</ele>
        <time>2019-09-25T13:55:39.001Z</time>
      </trkpt>
      <trkpt lat="47.74016" lon="6.45289">
        <ele>290.296</ele>
        <time>2019-09-25T13:56:09.001Z</time>
      </trkpt>
      <trkpt lat="47.7395" lon="6.45322">
        <ele>289.616</ele>
        <time>2019-09-25T13:56:45.001Z</time>
      </trkpt>
      <trkpt lat="47.73945" lon="6.45509">
        <ele>293.286</ele>
        <time>2019-09-25T13:57:15.001Z</time>
      </trkpt>
      <trkpt lat="47.73963" lon="6.45707">
        <ele>292.595</ele>
        <time>2019-09-25T13:57:45.001Z</time>
      </trkpt>
      <trkpt lat="47.74017" lon="6.45903">
        <ele>296.177</ele>
        <time>2019-09-25T13:58:15.001Z</time>
      </trkpt>
      <trkpt lat="47.7414" lon="6.45937">
        <ele>291.263</ele>
        <time>2019-09-25T13:58:45.001Z</time>
      </trkpt>
      <trkpt lat="47.74276" lon="6.45974">
        <ele>286.784</ele>
        <time>2019-09-25T13:59:15.001Z</time>
      </trkpt>
      <trkpt lat="47.743" lon="6.46172">
        <ele>293.741</ele>
        <time>2019-09-25T13:59:45.001Z</time>
      </trkpt>
      <trkpt lat="47.74325" lon="6.46365">
        <ele>297.954</ele>
        <time>2019-09-25T14:00:15.001Z</time>
      </trkpt>
      <trkpt lat="47.74352" lon="6.46568">
        <ele>297.655</ele>
        <time>2019-09-25T14:00:48.001Z</time>
      </trkpt>
      <trkpt lat="47.74381" lon="6.46719">
        <ele>300.327</ele>
        <time>2019-09-25T14:01:18.001Z</time>
      </trkpt>
      <trkpt lat="47.744" lon="6.46816">
        <ele>308.872</ele>
        <time>2019-09-25T14:01:48.001Z</time>
      </trkpt>
      <trkpt lat="47.74429" lon="6.46915">
        <ele>312.59</ele>
        <time>2019-09-25T14:02:18.001Z</time>
      </trkpt>
      <trkpt lat="47.74454" lon="6.47033">
        <ele>315.208</ele>
        <time>2019-09-25T14:02:48.001Z</time>
      </trkpt>
      <trkpt lat="47.74474" lon="6.47274">
        <ele>311.958</ele>
        <time>2019-09-25T14:03:18.001Z</time>
      </trkpt>
      <trkpt lat="47.74456" lon="6.47522">
        <ele>306.821</ele>
        <time>2019-09-25T14:03:48.001Z</time>
      </trkpt>
      <trkpt lat="47.74467" lon="6.47806">
        <ele>306.28</ele>
        <time>2019-09-25T14:04:18.001Z</time>
      </trkpt>
      <trkpt lat="47.74441" lon="6.48007">
        <ele>309.173</ele>
        <time>2019-09-25T14:04:48.001Z</time>
      </trkpt>
      <trkpt lat="47.74399" lon="6.48182">
        <ele>307.26</ele>
        <time>2019-09-25T14:05:18.001Z</time>
      </trkpt>
      <trkpt lat="47.7435" lon="6.48325">
        <ele>309.65</ele>
        <time>2019-09-25T14:05:48.001Z</time>
      </trkpt>
      <trkpt lat="47.74369" lon="6.48331">
        <ele>306.627</ele>
        <time>2019-09-25T14:08:03.001Z</time>
      </trkpt>
      <trkpt lat="47.74373" lon="6.48335">
        <ele>308.945</ele>
        <time>2019-09-25T14:11:03.001Z</time>
      </trkpt>
      <trkpt lat="47.74372" lon="6.48336">
        <ele>314.934</ele>
        <time>2019-09-25T14:14:39.001Z</time>
      </trkpt>
      <trkpt lat="47.74402" lon="6.48377">
        <ele>316.709</ele>
        <time>2019-09-25T14:16:03.001Z</time>
      </trkpt>
      <trkpt lat="47.74446" lon="6.48526">
        <ele>308.048</ele>
        <time>2019-09-25T14:16:33.001Z</time>
      </trkpt>
      <trkpt lat="47.74482" lon="6.4869">
        <ele>307.591</ele>
        <time>2019-09-25T14:17:03.001Z</time>
      </trkpt>
      <trkpt lat="47.74485" lon="6.48871">
        <ele>307.652</ele>
        <time>2019-09-25T14:17:33.001Z</time>
      </trkpt>
      <trkpt lat="47.74468" lon="6.4903">
        <ele>310.95</ele>
        <time>2019-09-25T14:18:03.001Z</time>
      </trkpt>
      <trkpt lat="47.74449" lon="6.49154">
        <ele>315.212</ele>
        <time>2019-09-25T14:18:33.001Z</time>
      </trkpt>
      <trkpt lat="47.74501" lon="6.4924">
        <ele>313.705</ele>
        <time>2019-09-25T14:19:03.001Z</time>
      </trkpt>
      <trkpt lat="47.74628" lon="6.49334">
        <ele>313.411</ele>
        <time>2019-09-25T14:19:33.001Z</time>
      </trkpt>
      <trkpt lat="47.74793" lon="6.49351">
        <ele>311.894</ele>
        <time>2019-09-25T14:20:03.001Z</time>
      </trkpt>
      <trkpt lat="47.74882" lon="6.49519">
        <ele>309.031</ele>
        <time>2019-09-25T14:20:33.001Z</time>
      </trkpt>
      <trkpt lat="47.7487" lon="6.49678">
        <ele>314.987</ele>
        <time>2019-09-25T14:21:06.001Z</time>
      </trkpt>
      <trkpt lat="47.74889" lon="6.49815">
        <ele>319.205</ele>
        <time>2019-09-25T14:21:36.001Z</time>
      </trkpt>
      <trkpt lat="47.74901" lon="6.4987">
        <ele>321.826</ele>
        <time>2019-09-25T14:24:27.001Z</time>
      </trkpt>
      <trkpt lat="47.74883" lon="6.49795">
        <ele>322.415</ele>
        <time>2019-09-25T14:25:03.001Z</time>
      </trkpt>
      <trkpt lat="47.74929" lon="6.49617">
        <ele>319.784</ele>
        <time>2019-09-25T14:25:33.001Z</time>
      </trkpt>
      <trkpt lat="47.74969" lon="6.49622">
        <ele>320.503</ele>
        <time>2019-09-25T14:26:54.001Z</time>
      </trkpt>
    </trkseg>
  </trk>
</gpx>